createdAt,value
2019-05-26T00:00:10.344Z,16.10
2019-05-26T00:02:38.930Z,15.90
2019-05-26T00:05:07.616Z,15.80
2019-05-26T00:07:36.130Z,15.60
2019-05-26T00:10:06.911Z,15.50
2019-05-26T00:12:35.681Z,15.40
2019-05-26T00:15:05.490Z,15.20
2019-05-26T00:17:34.284Z,15.10
2019-05-26T00:20:06.800Z,15.00
2019-05-26T00:22:35.288Z,14.90
2019-05-26T00:25:05.267Z,14.80
2019-05-26T00:27:34.798Z,14.70
2019-05-26T00:30:04.998Z,14.70
2019-05-26T00:32:33.538Z,14.90
2019-05-26T00:35:02.251Z,14.80
2019-05-26T00:37:45.635Z,14.70
2019-05-26T00:40:01.371Z,14.70
2019-05-26T00:42:30.150Z,14.60
2019-05-26T00:44:59.033Z,14.60
2019-05-26T00:47:27.494Z,14.40
2019-05-26T00:49:55.954Z,14.30
2019-05-26T00:52:24.784Z,14.20
2019-05-26T00:54:53.560Z,14.20
2019-05-26T00:57:22.010Z,14.10
2019-05-26T00:59:50.576Z,14.10
2019-05-26T01:02:19.335Z,14.10
2019-05-26T01:04:47.793Z,14.10
2019-05-26T01:07:16.590Z,14.10
2019-05-26T01:09:45.364Z,14.00
2019-05-26T01:12:13.907Z,14.00
2019-05-26T01:14:42.777Z,13.90
2019-05-26T01:17:11.305Z,14.00
2019-05-26T01:19:41.996Z,14.00
2019-05-26T01:22:10.838Z,13.90
2019-05-26T01:24:39.298Z,13.80
2019-05-26T01:27:07.759Z,13.90
2019-05-26T01:29:36.507Z,13.80
2019-05-26T01:32:05.231Z,13.80
2019-05-26T01:34:35.027Z,13.70
2019-05-26T01:37:06.543Z,13.70
2019-05-26T01:39:35.238Z,13.60
2019-05-26T01:42:04.605Z,13.40
2019-05-26T01:44:33.234Z,13.30
2019-05-26T01:47:02.016Z,13.20
2019-05-26T01:49:30.940Z,13.30
2019-05-26T01:51:59.678Z,13.10
2019-05-26T01:54:28.485Z,13.00
2019-05-26T01:56:57.019Z,12.90
2019-05-26T01:59:25.741Z,12.90
2019-05-26T02:01:57.883Z,12.80
2019-05-26T02:04:26.666Z,12.70
2019-05-26T02:06:55.581Z,12.70
2019-05-26T02:09:24.298Z,12.70
2019-05-26T02:11:52.757Z,12.70
2019-05-26T02:14:21.238Z,12.70
2019-05-26T02:16:49.709Z,12.70
2019-05-26T02:19:18.237Z,12.60
2019-05-26T02:21:46.729Z,12.60
2019-05-26T02:24:15.497Z,12.60
2019-05-26T02:26:44.220Z,12.50
2019-05-26T02:29:12.708Z,12.60
2019-05-26T02:31:42.728Z,12.60
2019-05-26T02:34:11.489Z,12.60
2019-05-26T02:36:40.319Z,12.60
2019-05-26T02:39:09.291Z,12.60
2019-05-26T02:41:38.299Z,12.60
2019-05-26T02:44:07.063Z,12.50
2019-05-26T02:46:35.598Z,12.50
2019-05-26T02:49:04.966Z,12.60
2019-05-26T02:51:33.834Z,12.50
2019-05-26T02:54:02.363Z,12.50
2019-05-26T02:56:31.008Z,12.50
2019-05-26T02:58:59.462Z,12.40
2019-05-26T03:01:28.600Z,12.40
2019-05-26T03:03:57.169Z,12.40
2019-05-26T03:06:26.679Z,12.40
2019-05-26T03:08:58.838Z,12.40
2019-05-26T03:11:29.570Z,12.20
2019-05-26T03:14:03.729Z,12.20
2019-05-26T03:16:35.942Z,12.10
2019-05-26T03:19:04.963Z,12.10
2019-05-26T03:21:35.278Z,12.10
2019-05-26T03:24:05.080Z,12.10
2019-05-26T03:26:33.613Z,12.10
2019-05-26T03:29:02.217Z,12.00
2019-05-26T03:31:31.261Z,12.00
2019-05-26T03:34:00.134Z,12.00
2019-05-26T03:36:28.942Z,12.00
2019-05-26T03:38:57.495Z,12.00
2019-05-26T03:41:26.454Z,12.00
2019-05-26T03:43:55.009Z,11.90
2019-05-26T03:46:23.564Z,11.90
2019-05-26T03:48:52.067Z,12.00
2019-05-26T03:51:20.708Z,11.90
2019-05-26T03:53:49.760Z,11.90
2019-05-26T03:56:19.332Z,11.90
2019-05-26T03:58:50.206Z,11.90
2019-05-26T04:01:19.057Z,11.90
2019-05-26T04:03:47.840Z,11.90
2019-05-26T04:06:16.730Z,11.80
2019-05-26T04:08:47.324Z,11.70
2019-05-26T04:11:16.148Z,11.80
2019-05-26T04:13:45.039Z,11.80
2019-05-26T04:16:13.953Z,11.80
2019-05-26T04:18:42.418Z,11.80
2019-05-26T04:21:11.297Z,11.80
2019-05-26T04:23:39.887Z,11.80
2019-05-26T04:26:08.343Z,11.80
2019-05-26T04:28:36.873Z,11.80
2019-05-26T04:31:05.950Z,11.80
2019-05-26T04:33:34.409Z,11.80
2019-05-26T04:36:03.181Z,11.80
2019-05-26T04:38:32.067Z,11.90
2019-05-26T04:41:00.799Z,11.90
2019-05-26T04:43:29.652Z,12.00
2019-05-26T04:45:58.466Z,12.10
2019-05-26T04:48:27.305Z,12.00
2019-05-26T04:50:55.859Z,12.00
2019-05-26T04:53:24.313Z,12.10
2019-05-26T04:55:52.773Z,12.10
2019-05-26T04:58:21.530Z,12.10
2019-05-26T05:00:50.356Z,12.10
2019-05-26T05:03:19.410Z,12.20
2019-05-26T05:05:48.251Z,12.20
2019-05-26T05:08:16.695Z,12.30
2019-05-26T05:10:45.504Z,12.30
2019-05-26T05:13:14.380Z,12.40
2019-05-26T05:15:43.099Z,12.40
2019-05-26T05:18:12.975Z,12.40
2019-05-26T05:20:42.052Z,12.50
2019-05-26T05:23:10.510Z,12.50
2019-05-26T05:25:39.248Z,12.60
2019-05-26T05:28:07.982Z,12.60
2019-05-26T05:30:36.527Z,12.50
2019-05-26T05:33:05.278Z,12.60
2019-05-26T05:35:34.350Z,12.60
2019-05-26T05:38:02.864Z,12.70
2019-05-26T05:40:31.748Z,12.70
2019-05-26T05:43:00.203Z,12.80
2019-05-26T05:45:29.056Z,12.90
2019-05-26T05:47:57.566Z,12.90
2019-05-26T05:50:26.161Z,13.00
2019-05-26T05:52:54.960Z,13.10
2019-05-26T05:55:23.959Z,13.20
2019-05-26T05:57:52.523Z,13.40
2019-05-26T06:00:21.504Z,13.60
2019-05-26T06:02:50.098Z,13.80
2019-05-26T06:05:18.931Z,13.90
2019-05-26T06:07:48.508Z,14.10
2019-05-26T06:10:17.657Z,14.20
2019-05-26T06:12:46.133Z,14.30
2019-05-26T06:15:16.547Z,14.50
2019-05-26T06:17:46.037Z,14.70
2019-05-26T06:20:15.253Z,14.80
2019-05-26T06:22:43.715Z,14.90
2019-05-26T06:25:12.535Z,15.00
2019-05-26T06:27:41.034Z,15.10
2019-05-26T06:30:10.662Z,15.30
2019-05-26T06:32:39.568Z,15.30
2019-05-26T06:35:09.703Z,15.40
2019-05-26T06:37:39.787Z,15.50
2019-05-26T06:40:09.667Z,15.50
2019-05-26T06:42:38.215Z,15.60
2019-05-26T06:45:07.717Z,15.70
2019-05-26T06:47:37.972Z,15.70
2019-05-26T06:50:06.867Z,15.70
2019-05-26T06:52:35.711Z,15.80
2019-05-26T06:55:05.587Z,16.00
2019-05-26T06:57:34.327Z,16.00
2019-05-26T07:00:03.246Z,16.10
2019-05-26T07:02:32.087Z,16.20
2019-05-26T07:05:01.034Z,16.30
2019-05-26T07:07:29.849Z,16.30
2019-05-26T07:09:59.508Z,16.40
2019-05-26T07:12:28.023Z,16.50
2019-05-26T07:14:56.938Z,16.60
2019-05-26T07:17:25.714Z,16.50
2019-05-26T07:19:54.729Z,16.40
2019-05-26T07:22:23.674Z,16.40
2019-05-26T07:24:52.398Z,16.40
2019-05-26T07:27:21.175Z,16.60
2019-05-26T07:29:50.083Z,16.70
2019-05-26T07:32:18.971Z,16.90
2019-05-26T07:34:47.433Z,16.90
2019-05-26T07:37:17.038Z,16.90
2019-05-26T07:39:45.766Z,16.90
2019-05-26T07:42:14.629Z,16.90
2019-05-26T07:44:43.327Z,16.90
2019-05-26T07:47:13.106Z,17.00
2019-05-26T07:49:41.916Z,17.00
2019-05-26T07:52:10.366Z,17.10
2019-05-26T07:54:43.599Z,17.20
2019-05-26T07:57:12.077Z,17.20
2019-05-26T07:59:40.869Z,17.20
2019-05-26T08:02:09.839Z,17.20
2019-05-26T08:04:38.637Z,17.30
2019-05-26T08:07:07.231Z,17.30
2019-05-26T08:09:35.974Z,17.20
2019-05-26T08:12:04.777Z,17.20
2019-05-26T08:14:33.557Z,17.30
2019-05-26T08:17:02.060Z,17.50
2019-05-26T08:19:30.855Z,17.70
2019-05-26T08:22:00.913Z,17.80
2019-05-26T08:24:29.733Z,18.00
2019-05-26T08:26:58.473Z,18.10
2019-05-26T08:29:27.005Z,18.10
2019-05-26T08:31:55.717Z,18.00
2019-05-26T08:34:24.447Z,18.00
2019-05-26T08:36:52.905Z,18.10
2019-05-26T08:39:21.374Z,18.20
2019-05-26T08:41:49.830Z,18.30
2019-05-26T08:44:18.329Z,18.30
2019-05-26T08:46:47.181Z,18.20
2019-05-26T08:49:17.009Z,18.30
2019-05-26T08:51:45.512Z,18.40
2019-05-26T08:54:14.035Z,18.40
2019-05-26T08:56:42.556Z,18.50
2019-05-26T08:59:11.442Z,18.70
2019-05-26T09:01:40.213Z,18.80
2019-05-26T09:04:08.676Z,19.00
2019-05-26T09:06:37.416Z,19.10
2019-05-26T09:09:07.782Z,19.20
2019-05-26T09:11:36.261Z,19.30
2019-05-26T09:14:06.362Z,19.40
2019-05-26T09:16:35.082Z,19.60
2019-05-26T09:19:03.628Z,19.80
2019-05-26T09:21:32.117Z,19.90
2019-05-26T09:24:00.930Z,20.00
2019-05-26T09:26:29.397Z,20.00
2019-05-26T09:28:59.471Z,20.10
2019-05-26T09:31:28.242Z,20.10
2019-05-26T09:33:56.766Z,20.00
2019-05-26T09:36:25.260Z,20.00
2019-05-26T09:38:54.066Z,19.90
2019-05-26T09:41:22.598Z,20.00
2019-05-26T09:43:51.144Z,20.10
2019-05-26T09:46:19.672Z,20.10
2019-05-26T09:48:48.132Z,20.00
2019-05-26T09:51:16.878Z,19.90
2019-05-26T09:53:45.342Z,19.90
2019-05-26T09:56:13.800Z,19.90
2019-05-26T09:58:42.291Z,19.90
2019-05-26T10:01:10.804Z,19.80
2019-05-26T10:03:39.579Z,20.00
2019-05-26T10:06:08.367Z,20.00
2019-05-26T10:08:37.163Z,20.20
2019-05-26T10:11:05.697Z,20.30
2019-05-26T10:13:34.439Z,20.30
2019-05-26T10:16:02.921Z,20.40
2019-05-26T10:18:31.702Z,20.50
2019-05-26T10:21:00.538Z,20.60
2019-05-26T10:23:29.398Z,20.90
2019-05-26T10:25:57.917Z,21.00
2019-05-26T10:28:26.403Z,21.10
2019-05-26T10:30:55.232Z,21.30
2019-05-26T10:33:24.966Z,21.60
2019-05-26T10:35:53.508Z,21.90
2019-05-26T10:38:22.006Z,22.10
2019-05-26T10:40:50.882Z,21.90
2019-05-26T10:43:19.373Z,21.90
2019-05-26T10:45:47.899Z,21.90
2019-05-26T10:48:16.722Z,22.10
2019-05-26T10:50:45.203Z,22.20
2019-05-26T10:53:13.929Z,22.30
2019-05-26T10:55:43.424Z,22.50
2019-05-26T10:58:12.101Z,22.50
2019-05-26T11:00:42.156Z,22.60
2019-05-26T11:03:10.625Z,22.60
2019-05-26T11:05:39.654Z,22.50
2019-05-26T11:08:09.594Z,22.40
2019-05-26T11:10:38.384Z,22.70
2019-05-26T11:13:07.006Z,22.80
2019-05-26T11:15:35.763Z,23.00
2019-05-26T11:18:04.361Z,23.00
2019-05-26T11:20:32.903Z,23.30
2019-05-26T11:23:01.361Z,23.40
2019-05-26T11:25:29.872Z,23.50
2019-05-26T11:27:58.322Z,23.60
2019-05-26T11:30:27.462Z,23.70
2019-05-26T11:32:59.451Z,23.70
2019-05-26T11:35:26.364Z,23.80
2019-05-26T11:37:54.859Z,23.80
2019-05-26T11:40:26.064Z,24.10
2019-05-26T11:42:54.689Z,24.30
2019-05-26T11:45:23.745Z,24.30
2019-05-26T11:47:52.303Z,24.40
2019-05-26T11:50:21.251Z,24.40
2019-05-26T11:52:49.806Z,24.40
2019-05-26T11:55:20.060Z,24.50
2019-05-26T11:57:48.822Z,24.50
2019-05-26T12:00:17.485Z,24.50
2019-05-26T12:02:47.348Z,24.60
2019-05-26T12:05:17.657Z,24.60
2019-05-26T12:07:46.933Z,24.60
2019-05-26T12:10:15.796Z,24.60
2019-05-26T12:12:44.618Z,24.80
2019-05-26T12:15:15.293Z,24.80
2019-05-26T12:17:43.753Z,24.70
2019-05-26T12:20:14.054Z,24.60
2019-05-26T12:22:42.836Z,24.60
2019-05-26T12:25:11.597Z,24.60
2019-05-26T12:27:40.371Z,24.60
2019-05-26T12:30:10.241Z,24.40
2019-05-26T12:32:39.945Z,24.10
2019-05-26T12:35:09.763Z,24.10
2019-05-26T12:37:38.343Z,23.80
2019-05-26T12:40:07.921Z,23.50
2019-05-26T12:42:36.737Z,23.50
2019-05-26T12:45:09.327Z,23.40
2019-05-26T12:47:38.278Z,23.30
2019-05-26T12:50:08.275Z,23.20
2019-05-26T12:52:38.056Z,23.10
2019-05-26T12:55:09.760Z,23.10
2019-05-26T12:57:38.860Z,23.00
2019-05-26T13:00:08.864Z,22.90
2019-05-26T13:02:37.373Z,22.80
2019-05-26T13:05:07.601Z,22.70
2019-05-26T13:07:36.165Z,22.70
2019-05-26T13:10:06.939Z,22.50
2019-05-26T13:12:35.479Z,22.40
2019-05-26T13:15:06.570Z,22.30
2019-05-26T13:17:35.503Z,22.40
2019-05-26T13:20:07.252Z,22.60
2019-05-26T13:22:35.729Z,22.80
2019-05-26T13:25:12.312Z,23.00
2019-05-26T13:27:41.119Z,23.20
2019-05-26T13:30:12.728Z,23.50
2019-05-26T13:32:41.334Z,23.70
2019-05-26T13:35:10.709Z,23.80
2019-05-26T13:37:39.442Z,23.80
2019-05-26T13:40:08.795Z,23.60
2019-05-26T13:42:37.486Z,23.30
2019-05-26T13:45:21.074Z,23.20
2019-05-26T13:47:38.567Z,23.30
2019-05-26T13:50:08.191Z,23.30
2019-05-26T13:52:37.048Z,23.40
2019-05-26T13:55:09.277Z,23.60
2019-05-26T13:57:38.087Z,23.60
2019-05-26T14:00:15.165Z,23.80
2019-05-26T14:02:44.085Z,23.90
2019-05-26T14:05:13.703Z,24.00
2019-05-26T14:07:42.574Z,24.00
2019-05-26T14:10:11.299Z,24.10
2019-05-26T14:12:39.859Z,24.10
2019-05-26T14:15:09.601Z,24.20
2019-05-26T14:17:39.798Z,24.30
2019-05-26T14:20:09.921Z,24.30
2019-05-26T14:22:38.412Z,24.30
2019-05-26T14:25:08.604Z,24.30
2019-05-26T14:27:37.205Z,24.40
2019-05-26T14:30:06.671Z,24.50
2019-05-26T14:32:35.567Z,24.40
2019-05-26T14:35:05.666Z,24.50
2019-05-26T14:37:34.446Z,24.50
2019-05-26T14:40:04.085Z,24.50
2019-05-26T14:42:32.542Z,24.50
2019-05-26T14:45:04.032Z,24.60
2019-05-26T14:47:32.875Z,24.60
2019-05-26T14:50:01.410Z,24.70
2019-05-26T14:52:30.274Z,24.90
2019-05-26T14:54:58.769Z,25.00
2019-05-26T14:57:30.843Z,25.20
2019-05-26T14:59:57.889Z,25.30
2019-05-26T15:02:27.193Z,25.50
2019-05-26T15:04:57.002Z,25.70
2019-05-26T15:07:25.757Z,25.60
2019-05-26T15:09:54.709Z,25.50
2019-05-26T15:12:23.314Z,25.30
2019-05-26T15:14:51.797Z,25.20
2019-05-26T15:17:20.328Z,25.10
2019-05-26T15:19:49.174Z,25.10
2019-05-26T15:22:17.984Z,25.10
2019-05-26T15:24:46.469Z,25.20
2019-05-26T15:27:15.269Z,25.40
2019-05-26T15:29:44.101Z,25.60
2019-05-26T15:32:12.903Z,25.80
2019-05-26T15:34:41.361Z,25.80
2019-05-26T15:37:10.187Z,25.80
2019-05-26T15:39:38.975Z,25.60
2019-05-26T15:42:08.496Z,25.40
2019-05-26T15:44:37.093Z,25.20
2019-05-26T15:47:05.621Z,25.10
2019-05-26T15:49:34.424Z,25.20
2019-05-26T15:52:02.889Z,25.20
2019-05-26T15:54:33.383Z,25.30
2019-05-26T15:57:01.859Z,25.40
2019-05-26T15:59:30.394Z,25.50
2019-05-26T16:02:01.768Z,25.50
2019-05-26T16:04:30.918Z,25.50
2019-05-26T16:06:59.373Z,25.40
2019-05-26T16:09:28.098Z,25.50
2019-05-26T16:11:56.748Z,25.60
2019-05-26T16:14:25.512Z,25.70
2019-05-26T16:16:54.001Z,25.60
2019-05-26T16:19:22.734Z,25.70
2019-05-26T16:21:51.284Z,25.60
2019-05-26T16:24:19.788Z,25.60
2019-05-26T16:26:49.388Z,25.50
2019-05-26T16:29:18.207Z,25.30
2019-05-26T16:31:47.523Z,25.20
2019-05-26T16:34:15.995Z,25.10
2019-05-26T16:36:44.890Z,25.00
2019-05-26T16:39:13.416Z,25.00
2019-05-26T16:41:42.256Z,25.00
2019-05-26T16:44:11.016Z,25.00
2019-05-26T16:46:39.536Z,24.60
2019-05-26T16:49:08.102Z,24.50
2019-05-26T16:51:36.689Z,24.30
2019-05-26T16:54:05.671Z,24.20
2019-05-26T16:56:34.195Z,24.00
2019-05-26T16:59:02.933Z,24.00
2019-05-26T17:01:31.836Z,24.00
2019-05-26T17:04:00.623Z,24.00
2019-05-26T17:06:29.151Z,23.90
2019-05-26T17:08:57.635Z,24.00
2019-05-26T17:11:26.784Z,24.00
2019-05-26T17:13:55.698Z,24.00
2019-05-26T17:16:24.297Z,24.00
2019-05-26T17:19:12.437Z,23.90
2019-05-26T17:21:41.277Z,23.70
2019-05-26T17:24:09.882Z,23.60
2019-05-26T17:26:38.424Z,23.60
2019-05-26T17:29:07.268Z,23.70
2019-05-26T17:31:36.341Z,23.80
2019-05-26T17:34:04.993Z,23.80
2019-05-26T17:36:34.777Z,23.90
2019-05-26T17:39:05.589Z,23.90
2019-05-26T17:41:34.416Z,23.70
2019-05-26T17:44:02.972Z,23.60
2019-05-26T17:46:33.154Z,23.60
2019-05-26T17:49:02.011Z,23.40
2019-05-26T17:51:30.558Z,23.30
2019-05-26T17:53:59.225Z,23.20
2019-05-26T17:56:28.019Z,22.90
2019-05-26T17:58:56.835Z,22.70
2019-05-26T18:01:25.347Z,22.70
2019-05-26T18:03:53.836Z,22.50
2019-05-26T18:06:22.823Z,22.40
2019-05-26T18:08:51.797Z,22.30
2019-05-26T18:11:20.712Z,22.30
2019-05-26T18:13:49.708Z,22.10
2019-05-26T18:16:18.614Z,22.00
2019-05-26T18:18:47.330Z,21.70
2019-05-26T18:21:16.180Z,21.60
2019-05-26T18:23:44.709Z,21.70
2019-05-26T18:26:13.611Z,21.60
2019-05-26T18:28:43.713Z,21.60
2019-05-26T18:31:12.431Z,21.40
2019-05-26T18:33:40.923Z,21.30
2019-05-26T18:36:09.710Z,21.10
2019-05-26T18:38:38.262Z,21.20
2019-05-26T18:41:06.860Z,20.90
2019-05-26T18:43:35.332Z,20.70
2019-05-26T18:46:05.034Z,20.60
2019-05-26T18:48:33.840Z,20.50
2019-05-26T18:51:02.341Z,20.50
2019-05-26T18:53:30.794Z,20.50
2019-05-26T18:55:59.712Z,20.30
2019-05-26T18:58:28.230Z,20.10
2019-05-26T19:00:56.756Z,20.10
2019-05-26T19:03:25.642Z,20.10
2019-05-26T19:05:54.166Z,20.00
2019-05-26T19:08:22.708Z,19.90
2019-05-26T19:10:51.325Z,19.80
2019-05-26T19:13:19.783Z,19.80
2019-05-26T19:15:48.741Z,19.80
2019-05-26T19:18:20.314Z,19.60
2019-05-26T19:20:49.011Z,19.50
2019-05-26T19:23:23.370Z,19.50
2019-05-26T19:25:51.826Z,19.50
2019-05-26T19:28:20.300Z,19.40
2019-05-26T19:30:48.868Z,19.40
2019-05-26T19:33:17.356Z,19.40
2019-05-26T19:35:46.313Z,19.30
2019-05-26T19:38:15.216Z,19.20
2019-05-26T19:40:43.725Z,19.20
2019-05-26T19:43:12.305Z,19.20
2019-05-26T19:45:41.059Z,19.20
2019-05-26T19:48:09.979Z,19.20
2019-05-26T19:50:38.821Z,19.20
2019-05-26T19:53:07.573Z,19.10
2019-05-26T19:55:36.407Z,18.90
2019-05-26T19:58:05.302Z,18.80
2019-05-26T20:00:34.143Z,18.80
2019-05-26T20:03:02.594Z,18.80
2019-05-26T20:05:32.738Z,18.80
2019-05-26T20:08:02.262Z,18.80
2019-05-26T20:10:30.849Z,18.80
2019-05-26T20:12:59.666Z,18.70
2019-05-26T20:15:28.584Z,18.70
2019-05-26T20:18:00.085Z,18.80
2019-05-26T20:20:28.986Z,18.80
2019-05-26T20:22:57.469Z,18.80
2019-05-26T20:25:26.262Z,18.80
2019-05-26T20:27:54.967Z,18.70
2019-05-26T20:30:23.702Z,18.70
2019-05-26T20:32:52.345Z,18.70
2019-05-26T20:35:20.945Z,18.60
2019-05-26T20:37:50.176Z,18.60
2019-05-26T20:40:18.782Z,18.60
2019-05-26T20:42:47.556Z,18.70
2019-05-26T20:45:16.611Z,18.70
2019-05-26T20:47:45.157Z,18.80
2019-05-26T20:50:28.168Z,18.80
2019-05-26T20:52:47.693Z,18.80
2019-05-26T20:55:18.843Z,18.80
2019-05-26T20:57:47.680Z,18.70
2019-05-26T21:00:18.490Z,18.70
2019-05-26T21:02:47.472Z,18.80
2019-05-26T21:05:16.474Z,18.60
2019-05-26T21:07:45.147Z,18.50
2019-05-26T21:10:14.453Z,18.50
2019-05-26T21:12:43.009Z,18.50
2019-05-26T21:15:12.070Z,18.50
2019-05-26T21:17:40.814Z,18.50
2019-05-26T21:20:10.707Z,18.60
2019-05-26T21:22:39.255Z,18.60
2019-05-26T21:25:08.503Z,18.60
2019-05-26T21:27:40.058Z,18.70
2019-05-26T21:30:09.170Z,18.60
2019-05-26T21:32:37.610Z,18.60
2019-05-26T21:35:09.846Z,18.50
2019-05-26T21:37:38.328Z,18.50
2019-05-26T21:40:09.044Z,18.60
2019-05-26T21:42:37.503Z,18.60
2019-05-26T21:45:09.430Z,18.50
2019-05-26T21:47:38.239Z,18.40
2019-05-26T21:50:09.165Z,18.30
2019-05-26T21:52:38.531Z,18.20
2019-05-26T21:55:07.685Z,18.20
2019-05-26T21:57:36.219Z,18.30
2019-05-26T22:00:07.981Z,18.20
2019-05-26T22:02:36.426Z,18.00
2019-05-26T22:05:07.329Z,18.00
2019-05-26T22:07:36.809Z,17.80
2019-05-26T22:10:07.681Z,17.70
2019-05-26T22:12:36.782Z,17.60
2019-05-26T22:15:07.502Z,17.40
2019-05-26T22:17:35.961Z,17.40
2019-05-26T22:20:07.209Z,17.40
2019-05-26T22:22:36.081Z,17.30
2019-05-26T22:25:06.843Z,17.30
2019-05-26T22:27:35.409Z,17.20
2019-05-26T22:30:07.255Z,17.20
2019-05-26T22:32:35.707Z,17.20
2019-05-26T22:35:07.349Z,17.10
2019-05-26T22:37:36.562Z,17.00
2019-05-26T22:40:08.696Z,16.90
2019-05-26T22:42:37.513Z,16.80
2019-05-26T22:45:08.654Z,16.80
2019-05-26T22:47:37.397Z,16.70
2019-05-26T22:50:07.710Z,16.60
2019-05-26T22:52:37.940Z,16.50
2019-05-26T22:55:09.375Z,16.50
2019-05-26T22:57:38.323Z,16.50
2019-05-26T23:00:09.552Z,16.40
2019-05-26T23:02:38.194Z,16.40
2019-05-26T23:05:07.896Z,16.30
2019-05-26T23:07:36.412Z,16.30
2019-05-26T23:10:08.852Z,16.30
2019-05-26T23:12:37.525Z,16.30
2019-05-26T23:15:10.544Z,16.30
2019-05-26T23:17:39.525Z,16.30
2019-05-26T23:20:09.234Z,16.20
2019-05-26T23:22:37.715Z,16.30
2019-05-26T23:25:07.135Z,16.40
2019-05-26T23:27:35.583Z,16.30
2019-05-26T23:30:07.022Z,16.20
2019-05-26T23:32:35.757Z,16.20
2019-05-26T23:35:06.064Z,16.10
2019-05-26T23:37:34.862Z,16.00
2019-05-26T23:40:05.820Z,16.10
2019-05-26T23:42:36.030Z,16.00
2019-05-26T23:45:06.881Z,16.00
2019-05-26T23:47:35.404Z,16.00
2019-05-26T23:50:07.783Z,16.00
2019-05-26T23:52:36.509Z,16.00
2019-05-26T23:55:09.169Z,16.00
2019-05-26T23:57:37.763Z,16.00
